Time;durP1;ratioP1;P1;durP2;ratioP2;P2;SDS_P1;SDS_P2;PMS_P1;PMS_P2;Temp;Humidity;BMP_temperature;BMP_pressure;BME280_temperature;BME280_humidity;BME280_pressure;Samples;Min_cycle;Max_cycle;Signal;HPM_P1;HPM_P2
2022/02/04 00:23:17;;;;;;;8.13;5.00;;;;;;;1.68;57.21;99612.33;1739137;80;21504;-56
2022/02/04 00:31:15;;;;;;;8.48;4.90;;;;;;;1.68;57.33;99606.70;1734044;80;21459;-57
2022/02/04 00:33:34;;;;;;;8.83;5.20;;;;;;;1.63;57.51;99610.19;1738939;80;21387;-56
2022/02/04 00:36:09;;;;;;;9.00;5.37;;;;;;;1.60;57.44;99611.09;1735938;80;21494;-56
2022/02/04 00:38:34;;;;;;;9.78;5.08;;;;;;;1.59;57.50;99609.35;1728717;80;20921;-56
2022/02/04 00:41:07;;;;;;;8.10;5.10;;;;;;;1.57;57.56;99609.80;1746171;81;21741;-56
2022/02/04 00:43:26;;;;;;;10.65;5.40;;;;;;;1.52;57.46;99609.81;1736593;80;21735;-57
2022/02/04 00:48:35;;;;;;;9.28;6.00;;;;;;;1.51;57.50;99618.92;1730054;80;22500;-56
2022/02/04 00:51:08;;;;;;;10.03;5.60;;;;;;;1.47;57.68;99614.59;1740080;80;21362;-56
2022/02/04 01:26:05;;;;;;;8.58;5.40;;;;;;;1.12;57.62;99613.08;1729619;82;21492;-56
2022/02/04 01:28:35;;;;;;;7.72;5.12;;;;;;;1.05;57.62;99616.12;1735521;80;20935;-56
2022/02/04 01:31:02;;;;;;;7.15;4.95;;;;;;;1.06;57.89;99619.16;1732970;80;21469;-56
2022/02/04 01:33:29;;;;;;;7.35;4.47;;;;;;;1.05;57.88;99613.53;1728272;80;22572;-56
2022/02/04 01:35:55;;;;;;;6.42;4.55;;;;;;;1.09;57.93;99618.27;1739115;80;21459;-56
2022/02/04 01:38:23;;;;;;;7.20;5.08;;;;;;;1.05;57.63;99612.23;1738032;80;21435;-56
2022/02/04 01:40:50;;;;;;;8.10;5.08;;;;;;;0.99;57.75;99609.69;1732936;80;20922;-56
2022/02/04 01:43:21;;;;;;;7.67;5.37;;;;;;;0.92;57.91;99610.57;1742051;80;21467;-56
2022/02/04 01:45:46;;;;;;;8.85;5.78;;;;;;;0.85;57.98;99612.75;1737592;80;22575;-57
2022/02/04 01:48:13;;;;;;;8.58;5.20;;;;;;;0.83;58.05;99607.61;1736246;80;21564;-56
2022/02/04 01:50:40;;;;;;;6.70;5.15;;;;;;;0.76;57.93;99605.91;1737715;80;21002;-56
2022/02/04 01:53:06;;;;;;;8.70;5.08;;;;;;;0.76;58.17;99611.93;1741042;80;21581;-56
2022/02/04 01:55:33;;;;;;;8.80;4.83;;;;;;;0.78;58.33;99613.23;1733652;80;21485;-56
2022/02/04 01:58:00;;;;;;;8.35;4.97;;;;;;;0.81;58.28;99614.93;1740050;82;22414;-56
2022/02/04 02:00:26;;;;;;;9.68;5.47;;;;;;;0.79;58.32;99612.34;1738097;80;21506;-56
2022/02/04 02:02:52;;;;;;;10.10;5.50;;;;;;;0.78;58.10;99615.81;1734193;80;20887;-56
2022/02/04 02:05:19;;;;;;;8.05;4.80;;;;;;;0.75;57.92;99609.34;1693539;83;21471;-56
2022/02/04 02:07:47;;;;;;;9.05;5.72;;;;;;;0.73;58.00;99602.88;1739955;80;20959;-56
2022/02/04 02:10:17;;;;;;;12.88;5.70;;;;;;;0.69;57.87;99609.38;1737487;80;22634;-56
2022/02/04 02:42:48;;;;;;;10.40;6.28;;;;;;;0.49;58.18;99623.23;1729277;80;21444;-56
2022/02/04 11:56:11;;;;;;;8.00;7.20;;;;;;;14.38;50.39;99563.93;1688827;83;21504;-62
2022/02/04 11:59:00;;;;;;;7.12;6.33;;;;;;;14.46;53.92;99567.44;1691820;83;21561;-60
2022/02/04 12:01:41;;;;;;;7.60;6.22;;;;;;;14.56;52.44;99566.80;1681676;83;22328;-60
2022/02/04 12:04:19;;;;;;;9.45;7.15;;;;;;;14.65;49.15;99564.08;1690829;83;21664;-61
2022/02/04 12:06:48;;;;;;;10.68;7.30;;;;;;;14.90;50.77;99565.21;1675762;83;21557;-60
2022/02/04 12:09:35;;;;;;;8.60;6.67;;;;;;;14.93;50.10;99569.84;1677784;83;21502;-60
2022/02/04 12:12:02;;;;;;;7.85;6.12;;;;;;;14.90;49.54;99575.80;1667348;83;21785;-60
2022/02/04 12:14:30;;;;;;;8.83;6.60;;;;;;;14.93;48.15;99571.17;1700465;82;21422;-60
2022/02/04 12:17:12;;;;;;;9.03;6.67;;;;;;;15.07;46.78;99567.69;1681264;83;21486;-60
2022/02/04 12:19:40;;;;;;;7.72;6.22;;;;;;;15.11;46.87;99565.70;1701414;83;21068;-60
2022/02/04 12:22:06;;;;;;;;;;;;;;;15.34;50.23;99573.50;1691836;82;21537;-58
2022/02/04 12:24:38;;;;;;;10.28;6.90;;;;;;;14.94;44.82;99574.69;1686408;83;20428;-58
2022/02/04 12:27:31;;;;;;;7.08;5.70;;;;;;;14.54;49.74;99569.13;1694641;83;22571;-58
2022/02/04 12:29:57;;;;;;;8.03;5.30;;;;;;;14.30;50.10;99572.80;1630509;86;21520;-61
2022/02/04 12:32:24;;;;;;;7.75;5.83;;;;;;;13.68;47.46;99574.19;1661035;83;21399;-60
2022/02/04 12:34:54;;;;;;;7.87;5.03;;;;;;;13.03;46.32;99577.25;1657377;85;21347;-61
2022/02/04 12:37:20;;;;;;;9.43;6.42;;;;;;;12.32;45.28;99580.09;1661416;84;21510;-58
2022/02/04 12:39:47;;;;;;;8.43;6.60;;;;;;;11.83;49.44;99577.25;1698569;82;22335;-60
2022/02/04 12:42:16;;;;;;;7.00;5.87;;;;;;;11.24;45.45;99583.95;1695833;83;21560;-60
2022/02/04 12:44:43;;;;;;;7.47;5.35;;;;;;;10.79;46.66;99588.22;1649752;83;21360;-60
2022/02/04 12:47:11;;;;;;;7.42;5.92;;;;;;;10.44;47.17;99584.06;1692160;82;21488;-60
2022/02/04 12:49:55;;;;;;;8.15;6.12;;;;;;;10.21;47.07;99591.55;1692349;83;21478;-60
2022/02/04 12:52:40;;;;;;;6.42;5.25;;;;;;;10.00;46.31;99586.30;1666751;83;22412;-61
2022/02/04 12:55:07;;;;;;;6.62;5.55;;;;;;;9.81;46.34;99594.52;1693945;83;21634;-61
2022/02/04 12:57:42;;;;;;;6.35;4.85;;;;;;;9.68;46.07;99591.09;1692029;83;21092;-59
2022/02/04 13:08:35;;;;;;;6.33;4.87;;;;;;;9.38;44.88;99581.34;1661877;85;21558;-60
2022/02/04 13:11:12;;;;;;;7.10;5.50;;;;;;;9.23;46.08;99581.91;1646581;84;21478;-59
2022/02/04 13:16:10;;;;;;;8.10;5.50;;;;;;;9.02;45.79;99588.83;1662713;84;21612;-60
2022/02/04 13:18:37;;;;;;;7.87;5.97;;;;;;;8.91;47.27;99584.84;1660248;84;22347;-58
2022/02/04 13:21:04;;;;;;;8.28;5.83;;;;;;;8.72;44.27;99586.41;1663657;84;21581;-58
2022/02/04 13:23:31;;;;;;;9.25;5.97;;;;;;;8.64;44.85;99588.46;1658024;84;21558;-58
2022/02/04 13:26:00;;;;;;;5.62;4.97;;;;;;;8.68;47.05;99588.31;1655029;85;21447;-59
2022/02/04 13:28:35;;;;;;;9.33;5.70;;;;;;;8.80;46.71;99588.75;1662461;84;21420;-59
2022/02/04 13:31:04;;;;;;;10.88;5.50;;;;;;;8.82;47.46;99586.49;1697983;82;22413;-59
2022/02/04 13:33:42;;;;;;;8.60;5.92;;;;;;;8.76;46.80;99589.34;1649769;85;21570;-59
2022/02/04 13:36:35;;;;;;;9.78;6.50;;;;;;;8.75;46.86;99588.94;1624699;85;21462;-59
2022/02/04 13:47:36;;;;;;;6.95;5.22;;;;;;;8.36;46.17;99592.01;1655860;84;21613;-60
2022/02/04 13:52:53;;;;;;;9.78;6.17;;;;;;;8.17;47.06;99587.42;1616413;86;21570;-58
2022/02/04 13:55:27;;;;;;;9.55;5.67;;;;;;;8.12;47.39;99590.64;1698518;83;21573;-58
2022/02/04 13:57:52;;;;;;;8.80;5.60;;;;;;;8.03;47.83;99590.95;1691866;82;22239;-59
2022/02/04 14:00:45;;;;;;;7.60;5.08;;;;;;;7.87;46.95;99586.66;1686536;82;21115;-58
2022/02/04 14:03:15;;;;;;;7.70;5.58;;;;;;;7.67;47.31;99586.47;1681676;82;21487;-58
2022/02/04 14:05:48;;;;;;;7.95;5.30;;;;;;;7.54;47.15;99587.30;1677470;83;21540;-57
2022/02/04 14:08:14;;;;;;;8.58;5.53;;;;;;;7.43;48.28;99591.55;1697345;81;20934;-58
2022/02/04 14:10:50;;;;;;;7.55;4.87;;;;;;;7.31;47.82;99587.98;1686744;83;21522;-58
2022/02/04 14:13:20;;;;;;;7.05;5.62;;;;;;;7.25;47.87;99589.02;1691715;82;21403;-57
2022/02/04 14:15:54;;;;;;;7.90;5.55;;;;;;;7.08;47.85;99587.37;1689885;82;21565;-57
2022/02/04 14:18:21;;;;;;;11.40;6.62;;;;;;;7.05;48.60;99597.94;1686181;83;21686;-57
2022/02/04 14:20:48;;;;;;;8.43;6.37;;;;;;;6.91;46.89;99599.19;1698632;82;21541;-57
2022/02/04 14:23:15;;;;;;;11.27;6.90;;;;;;;6.77;48.41;99602.63;1681553;83;22442;-58
2022/02/04 14:26:04;;;;;;;13.32;7.50;;;;;;;6.76;48.18;99606.13;1686468;83;21569;-57
2022/02/04 14:28:34;;;;;;;19.20;8.15;;;;;;;6.57;48.48;99613.19;1692020;82;21494;-57
2022/02/04 14:31:01;;;;;;;14.63;7.53;;;;;;;6.36;47.68;99607.21;1690625;82;21569;-57
2022/02/04 14:36:11;;;;;;;22.45;9.28;;;;;;;6.27;48.80;99622.66;1686968;83;22655;-57
2022/02/04 14:52:21;;;;;;;42.08;16.80;;;;;;;5.75;48.87;99640.42;1676108;83;21483;-56
2022/02/04 15:02:45;;;;;;;39.03;14.78;;;;;;;5.28;49.08;99655.38;1627772;85;22289;-56
2022/02/04 15:05:13;;;;;;;31.45;12.50;;;;;;;5.16;49.30;99650.40;1687077;83;20981;-57
2022/02/04 15:07:39;;;;;;;28.85;11.50;;;;;;;4.98;49.30;99646.44;1658877;85;21438;-58
2022/02/04 15:10:12;;;;;;;26.42;10.78;;;;;;;4.87;49.39;99659.21;1661952;85;21380;-56
2022/02/04 15:12:34;;;;;;;19.98;9.95;;;;;;;4.78;49.60;99657.23;1656165;84;21408;-57
2022/02/04 15:15:01;;;;;;;21.65;9.35;;;;;;;4.67;49.90;99663.52;1668130;83;22331;-57
2022/02/04 15:17:28;;;;;;;17.67;8.75;;;;;;;4.59;50.11;99666.68;1637963;84;21593;-56
2022/02/04 15:19:54;;;;;;;15.43;8.00;;;;;;;4.50;50.36;99664.23;1656756;84;21544;-56
2022/02/04 15:22:24;;;;;;;17.42;8.20;;;;;;;4.46;50.60;99663.88;1652082;84;21526;-57
2022/02/04 15:24:53;;;;;;;16.23;8.00;;;;;;;4.46;50.74;99665.19;1677563;83;21475;-57
2022/02/04 15:27:17;;;;;;;16.32;8.25;;;;;;;4.36;50.66;99670.14;1694545;82;22539;-58
2022/02/04 15:29:46;;;;;;;17.75;8.60;;;;;;;4.29;50.80;99665.47;1688715;82;21627;-57
2022/02/04 15:32:12;;;;;;;14.80;9.00;;;;;;;4.24;51.32;99662.11;1692185;82;21442;-57
2022/02/04 15:34:39;;;;;;;18.42;9.25;;;;;;;4.04;50.49;99672.83;1691638;83;20883;-56
2022/02/04 15:37:05;;;;;;;15.60;8.45;;;;;;;3.91;50.57;99663.05;1700382;83;21513;-57
2022/02/04 15:39:32;;;;;;;15.37;8.37;;;;;;;3.86;50.87;99664.44;1679126;83;22333;-56
2022/02/04 15:42:04;;;;;;;16.50;8.58;;;;;;;3.83;50.98;99667.52;1682015;83;21391;-57
2022/02/04 15:55:11;;;;;;;28.40;13.28;;;;;;;3.51;51.30;99680.53;1686415;83;21361;-56
2022/02/04 16:05:28;;;;;;;19.52;9.38;;;;;;;3.53;51.44;99680.52;1696663;82;22644;-56
2022/02/04 16:07:56;;;;;;;22.00;9.65;;;;;;;3.50;51.26;99677.08;1688913;83;21513;-56
2022/02/04 16:10:32;;;;;;;19.17;8.63;;;;;;;3.54;51.37;99676.57;1700635;82;21506;-57
2022/02/04 16:13:06;;;;;;;15.78;8.60;;;;;;;3.55;51.31;99678.75;1696029;83;21102;-56
2022/02/04 16:15:39;;;;;;;17.52;8.83;;;;;;;3.56;51.13;99683.05;1663656;85;21625;-56
2022/02/04 16:18:06;;;;;;;26.07;13.70;;;;;;;3.49;51.11;99684.45;1633555;85;22281;-56
2022/02/04 16:23:11;;;;;;;36.00;22.20;;;;;;;3.48;50.09;99675.36;1630840;85;21529;-56
2022/02/04 16:31:11;;;;;;;28.32;16.20;;;;;;;3.48;50.50;99677.55;1650793;84;22541;-56
2022/02/04 16:33:37;;;;;;;24.25;12.73;;;;;;;3.47;50.62;99680.16;1627013;86;21087;-56
2022/02/04 16:36:08;;;;;;;19.73;11.25;;;;;;;3.35;50.59;99682.91;1626379;86;21371;-55
2022/02/04 16:38:32;;;;;;;17.87;9.75;;;;;;;3.26;50.77;99682.59;1627343;85;21340;-56
2022/02/04 16:41:11;;;;;;;17.65;9.13;;;;;;;3.20;50.71;99686.13;1630680;86;21648;-56
2022/02/04 16:43:27;;;;;;;16.90;8.50;;;;;;;3.07;50.84;99691.91;1687308;83;21546;-57
2022/02/04 16:45:55;;;;;;;14.90;8.05;;;;;;;3.00;51.03;99692.00;1693066;83;21539;-57
2022/02/04 16:48:22;;;;;;;14.25;8.70;;;;;;;2.96;50.89;99689.87;1684153;81;21417;-56
2022/02/04 16:50:49;;;;;;;14.20;7.78;;;;;;;2.83;51.03;99691.73;1694580;83;21416;-56
2022/02/04 16:53:15;;;;;;;;;;;;;;;2.75;51.17;99689.66;1684032;83;21379;-55
2022/02/04 16:55:41;;;;;;;16.62;8.60;;;;;;;2.71;50.88;99686.23;1689396;83;23648;-56
2022/02/04 16:58:08;;;;;;;14.85;9.30;;;;;;;2.69;51.11;99685.39;1679861;82;21641;-56
2022/02/04 17:00:35;;;;;;;12.50;8.65;;;;;;;2.64;51.49;99690.20;1682603;83;21371;-56
2022/02/04 17:03:02;;;;;;;14.60;9.47;;;;;;;2.61;51.47;99689.78;1689514;83;21499;-56
2022/02/04 17:05:37;;;;;;;14.95;9.75;;;;;;;2.55;51.32;99692.44;1694631;82;21351;-55
2022/02/04 17:08:06;;;;;;;15.68;10.00;;;;;;;2.52;50.95;99694.64;1698092;83;22565;-56
2022/02/04 17:10:31;;;;;;;17.35;9.58;;;;;;;2.48;51.54;99695.52;1695865;82;21091;-56
2022/02/04 17:13:00;;;;;;;18.52;9.88;;;;;;;2.47;51.66;99699.45;1691006;82;21555;-56
2022/02/04 17:15:29;;;;;;;16.73;10.60;;;;;;;2.44;51.68;99702.06;1685357;82;21600;-56
2022/02/04 17:17:56;;;;;;;17.98;10.80;;;;;;;2.41;51.61;99696.47;1694926;83;21455;-56
2022/02/04 17:20:24;;;;;;;20.48;11.22;;;;;;;2.29;51.09;99707.80;1689179;82;22325;-56
2022/02/04 17:22:50;;;;;;;22.58;13.03;;;;;;;2.25;51.46;99703.51;1682976;82;21505;-56
2022/02/04 17:25:17;;;;;;;30.37;17.97;;;;;;;2.24;51.78;99706.11;1677883;82;21504;-55
2022/02/04 17:27:44;;;;;;;40.80;23.60;;;;;;;2.19;51.76;99700.12;1688989;82;27817;-55
2022/02/04 17:30:13;;;;;;;40.52;23.70;;;;;;;2.15;51.69;99700.58;1694033;82;21644;-56
2022/02/04 17:32:41;;;;;;;31.25;18.65;;;;;;;2.11;51.56;99704.03;1691855;82;22412;-57
2022/02/04 17:35:08;;;;;;;28.90;14.70;;;;;;;2.10;51.52;99702.33;1691887;82;29303;-56
2022/02/04 17:37:36;;;;;;;20.40;11.88;;;;;;;2.05;51.74;99699.75;1695707;83;21489;-55
2022/02/04 17:40:05;;;;;;;19.10;10.88;;;;;;;2.08;51.63;99702.78;1695678;83;21607;-55
2022/02/04 17:42:31;;;;;;;19.23;10.53;;;;;;;2.03;51.68;99708.43;1694457;83;21609;-56
2022/02/04 17:44:58;;;;;;;22.67;11.65;;;;;;;1.97;51.98;99706.73;1685926;83;21545;-56
2022/02/04 17:47:26;;;;;;;25.60;13.28;;;;;;;2.00;51.75;99708.44;1693646;83;21532;-56
2022/02/04 17:52:36;;;;;;;25.25;13.88;;;;;;;1.84;52.13;99705.95;1684926;83;21307;-55
2022/02/04 17:54:59;;;;;;;24.50;15.48;;;;;;;1.80;52.13;99704.70;1644304;84;21503;-56
2022/02/04 17:58:27;;;;;;;23.02;14.83;;;;;;;1.85;52.08;99702.95;1680189;83;22284;-55
2022/02/04 18:00:18;;;;;;;25.48;14.93;;;;;;;1.89;52.19;99707.23;1674584;82;26098;-55
2022/02/04 18:02:43;;;;;;;33.45;18.60;;;;;;;-91.17;52.36;99705.49;1689855;82;21508;-55
2022/02/04 18:05:28;;;;;;;;;;;;;;;1.88;52.22;99703.77;1698481;81;21547;-56
2022/02/04 18:07:44;;;;;;;32.13;17.23;;;;;;;1.86;51.28;99701.62;1688297;83;20618;-56
2022/02/04 18:10:10;;;;;;;34.63;18.73;;;;;;;1.87;51.32;99704.65;1682921;82;22266;-56
2022/02/04 18:12:37;;;;;;;34.63;19.60;;;;;;;1.86;50.46;99704.20;1681054;83;21546;-56
2022/02/04 18:15:04;;;;;;;34.08;18.73;;;;;;;1.89;50.93;99701.61;1692220;82;21484;-55
2022/02/04 18:17:30;;;;;;;36.20;20.00;;;;;;;1.92;50.95;99701.59;1688060;83;21475;-55
2022/02/04 18:19:57;;;;;;;37.78;19.60;;;;;;;1.94;51.19;99701.15;1674553;83;21518;-55
2022/02/04 18:22:23;;;;;;;37.85;18.20;;;;;;;1.92;51.23;99695.12;1660848;84;22610;-56
2022/02/04 18:24:49;;;;;;;35.20;16.80;;;;;;;1.88;50.71;99695.98;1686004;83;21454;-56
2022/02/04 18:27:16;;;;;;;27.13;15.65;;;;;;;1.95;50.56;99694.22;1679850;82;21575;-56
2022/02/04 18:29:46;;;;;;;26.70;14.53;;;;;;;2.05;51.22;99697.61;1687348;83;21417;-55
2022/02/04 18:32:10;;;;;;;28.85;15.75;;;;;;;2.09;51.62;99693.70;1700218;81;22050;-56
2022/02/04 18:34:37;;;;;;;27.20;14.93;;;;;;;2.19;51.41;99690.59;1676253;83;21510;-56
2022/02/04 18:37:05;;;;;;;29.17;15.83;;;;;;;2.24;51.42;99687.95;1693238;82;21360;-59
2022/02/04 18:40:08;;;;;;;24.27;13.93;;;;;;;2.24;51.43;99690.13;1695529;82;21450;-55
2022/02/04 18:45:11;;;;;;;25.80;14.50;;;;;;;2.21;51.48;99692.73;1678555;83;21398;-55
2022/02/04 18:50:27;;;;;;;22.52;12.18;;;;;;;2.12;51.50;99688.47;1696447;83;21023;-55
2022/02/04 18:55:46;;;;;;;22.62;12.80;;;;;;;2.05;51.42;99675.11;1693652;82;21555;-57
2022/02/04 18:58:10;;;;;;;25.95;13.50;;;;;;;1.96;51.44;99663.55;1694518;83;21071;-55
2022/02/04 19:00:37;;;;;;;25.17;14.73;;;;;;;1.90;51.58;99669.63;1653974;84;21573;-56
2022/02/04 19:03:07;;;;;;;22.35;12.40;;;;;;;1.80;51.71;99665.37;1623179;86;21538;-56
2022/02/04 19:05:37;;;;;;;25.48;13.60;;;;;;;1.69;51.97;99664.58;1662578;84;21346;-56
2022/02/04 19:08:07;;;;;;;25.12;13.60;;;;;;;1.65;51.56;99666.33;1659367;84;21591;-56
2022/02/04 19:10:34;;;;;;;22.15;13.32;;;;;;;1.61;51.52;99667.66;1663789;84;21538;-56
2022/02/04 19:13:08;;;;;;;26.68;13.68;;;;;;;1.63;51.80;99662.88;1628882;85;22458;-57
2022/02/04 19:18:06;;;;;;;25.10;13.53;;;;;;;1.60;52.02;99663.33;1695055;83;21439;-57
2022/02/04 19:24:29;;;;;;;31.48;16.37;;;;;;;0.49;55.72;99662.45;1785131;78;23049;-56
2022/02/04 19:26:54;;;;;;;31.90;16.62;;;;;;;1.66;52.51;99667.20;1764928;79;21579;-56
2022/02/04 19:29:23;;;;;;;26.57;14.20;;;;;;;1.74;51.79;99663.67;1758471;80;22503;-55
2022/02/04 19:31:53;;;;;;;26.95;15.18;;;;;;;1.77;51.65;99665.37;1755268;80;21526;-55
2022/02/04 19:34:19;;;;;;;29.15;15.23;;;;;;;1.77;51.61;99672.30;1753472;80;21504;-55
2022/02/04 19:36:46;;;;;;;25.43;14.30;;;;;;;1.74;51.56;99677.08;1767020;80;21537;-55
2022/02/04 19:39:13;;;;;;;25.53;14.63;;;;;;;1.73;51.59;99674.94;1764659;80;21104;-56
2022/02/04 19:41:45;;;;;;;27.30;14.60;;;;;;;1.75;51.47;99671.01;1753288;80;22539;-56
2022/02/04 19:44:08;;;;;;;23.20;14.10;;;;;;;1.71;51.01;99674.08;1702660;81;21422;-56
2022/02/04 19:46:38;;;;;;;25.23;14.28;;;;;;;1.73;51.49;99677.53;1701400;82;21470;-58
2022/02/04 19:49:07;;;;;;;27.80;16.37;;;;;;;1.66;51.62;99674.54;1693875;83;21510;-56
2022/02/04 19:51:46;;;;;;;24.77;14.40;;;;;;;1.65;51.61;99674.10;1709448;82;21430;-55
2022/02/04 20:14:20;;;;;;;16.00;10.78;;;;;;;1.46;51.51;99664.72;1708469;82;21533;-55
2022/02/04 20:24:31;;;;;;;19.17;12.00;;;;;;;1.46;51.62;99664.72;1700664;82;21550;-56
2022/02/04 20:26:28;;;;;;;19.98;12.50;;;;;;;1.33;51.70;99662.18;1712612;82;21558;-55
2022/02/04 20:28:55;;;;;;;19.13;11.50;;;;;;;1.32;51.84;99660.92;1710901;82;21457;-55
2022/02/04 20:31:21;;;;;;;20.80;12.00;;;;;;;1.26;51.76;99661.81;1718933;82;20907;-56
2022/02/04 20:33:49;;;;;;;21.23;13.13;;;;;;;1.20;51.84;99658.37;1696120;83;22465;-56
2022/02/04 20:36:15;;;;;;;22.07;14.30;;;;;;;1.20;51.80;99662.25;1691866;83;21430;-56
2022/02/04 20:38:48;;;;;;;21.90;13.83;;;;;;;1.19;51.87;99663.11;1698001;82;21453;-56
2022/02/04 20:41:12;;;;;;;23.15;14.80;;;;;;;1.18;51.99;99662.25;1713840;82;21347;-56
2022/02/04 20:43:39;;;;;;;29.90;15.25;;;;;;;1.20;51.79;99663.55;1694117;83;21443;-56
2022/02/04 20:46:06;;;;;;;25.30;14.93;;;;;;;1.16;51.93;99658.37;1716769;82;22811;-56
2022/02/04 20:48:35;;;;;;;23.38;14.83;;;;;;;1.17;52.18;99657.96;1688205;83;21576;-56
2022/02/04 20:51:04;;;;;;;26.90;14.55;;;;;;;1.17;51.78;99657.96;1702999;82;20965;-56
2022/02/04 20:53:33;;;;;;;23.00;14.93;;;;;;;1.25;52.85;99660.52;1682883;83;21519;-55
2022/02/04 20:56:00;;;;;;;22.73;14.23;;;;;;;1.28;52.85;99659.19;1711522;81;21538;-57
2022/02/04 20:58:28;;;;;;;20.68;14.33;;;;;;;1.21;52.98;99653.19;1709290;82;22831;-56
2022/02/04 21:00:54;;;;;;;21.97;13.22;;;;;;;1.22;53.07;99655.33;1728470;82;21573;-56
2022/02/04 21:03:23;;;;;;;24.05;13.90;;;;;;;1.25;52.83;99656.63;1706879;83;21093;-56
2022/02/04 21:05:58;;;;;;;22.10;13.72;;;;;;;1.26;53.28;99658.33;1694034;83;21534;-55
2022/02/04 21:09:00;;;;;;;23.32;13.28;;;;;;;1.20;53.17;99653.19;1717097;82;21451;-56
2022/02/04 21:13:57;;;;;;;20.12;12.28;;;;;;;1.07;53.01;99648.05;1682398;83;21460;-56
2022/02/04 21:16:24;;;;;;;25.35;14.45;;;;;;;0.97;52.85;99651.55;1694496;82;21408;-56
2022/02/04 21:18:53;;;;;;;22.02;13.32;;;;;;;1.01;53.43;99645.49;1690260;83;21435;-57
2022/02/04 21:21:21;;;;;;;22.62;12.78;;;;;;;0.91;52.82;99647.70;1702669;82;21017;-56
2022/02/04 21:23:47;;;;;;;21.42;12.70;;;;;;;0.90;52.82;99645.52;1709221;82;22792;-56
2022/02/04 21:26:14;;;;;;;23.10;12.68;;;;;;;0.99;52.85;99645.94;1743304;80;21534;-56
2022/02/04 21:28:44;;;;;;;22.48;12.95;;;;;;;1.02;52.85;99653.70;1747834;80;21503;-56
2022/02/04 21:31:10;;;;;;;22.00;13.43;;;;;;;1.03;53.43;99645.05;1690173;82;21424;-55
2022/02/04 21:34:10;;;;;;;25.17;14.45;;;;;;;0.97;52.36;99654.14;1739926;80;21368;-56
2022/02/04 21:39:00;;;;;;;22.80;13.45;;;;;;;1.04;52.69;99650.67;1749020;80;20938;-56
2022/02/04 21:41:27;;;;;;;21.68;12.45;;;;;;;1.06;52.41;99640.31;1744863;80;21461;-56
2022/02/04 21:43:53;;;;;;;24.20;13.17;;;;;;;1.10;52.62;99638.98;1743817;80;21548;-56
2022/02/04 21:46:27;;;;;;;23.25;12.68;;;;;;;1.06;52.75;99632.55;1742592;80;21551;-56
2022/02/04 21:48:57;;;;;;;23.00;13.22;;;;;;;1.06;52.68;99632.09;1742036;80;22495;-56
2022/02/04 21:51:22;;;;;;;24.25;13.83;;;;;;;1.00;52.59;99636.02;1747448;80;21494;-56
2022/02/04 21:53:49;;;;;;;22.30;13.33;;;;;;;1.09;52.49;99636.39;1754269;80;21386;-56
2022/02/04 21:56:16;;;;;;;24.83;13.63;;;;;;;1.04;52.65;99628.66;1748179;80;22128;-55
2022/02/04 21:58:44;;;;;;;22.42;12.93;;;;;;;1.09;52.37;99624.33;1759009;80;20946;-56
2022/02/04 22:01:11;;;;;;;22.75;12.45;;;;;;;1.04;52.38;99631.25;1742001;80;22821;-55
2022/02/04 22:03:38;;;;;;;22.73;14.15;;;;;;;1.07;52.29;99627.33;1739325;80;21061;-56
2022/02/04 22:06:06;;;;;;;25.40;13.93;;;;;;;1.00;52.25;99628.25;1690022;84;21478;-56
2022/02/04 22:08:56;;;;;;;25.08;13.83;;;;;;;1.03;52.02;99625.63;1744602;80;21452;-56
2022/02/04 22:22:04;;;;;;;21.55;13.65;;;;;;;1.01;51.68;99627.81;1746983;80;21482;-56
2022/02/04 22:24:37;;;;;;;20.72;13.00;;;;;;;0.99;52.18;99638.61;1732378;82;21586;-56
2022/02/04 22:27:06;;;;;;;20.40;11.00;;;;;;;1.05;52.22;99641.16;1730245;81;22805;-56
2022/02/04 22:29:37;;;;;;;16.45;10.18;;;;;;;1.13;52.34;99630.33;1735402;81;21469;-56
2022/02/04 22:32:07;;;;;;;19.95;10.98;;;;;;;1.28;52.19;99624.21;1730301;82;21508;-56
2022/02/04 22:37:26;;;;;;;17.67;9.65;;;;;;;1.58;51.98;99621.88;1683777;83;21554;-56
2022/02/04 22:50:11;;;;;;;15.08;9.88;;;;;;;2.11;51.87;99618.44;1736209;81;21382;-55
2022/02/04 22:57:51;;;;;;;18.37;9.70;;;;;;;2.23;51.79;99617.05;1731781;82;21627;-55
2022/02/04 23:00:42;;;;;;;14.90;8.78;;;;;;;2.23;51.19;99617.48;1731030;80;21526;-55
2022/02/04 23:03:19;;;;;;;15.00;9.08;;;;;;;2.17;50.53;99614.93;1734927;80;21510;-55
2022/02/04 23:05:37;;;;;;;17.02;9.80;;;;;;;2.11;50.60;99621.03;1736454;81;22597;-55
2022/02/04 23:08:11;;;;;;;21.93;10.80;;;;;;;2.09;50.68;99622.78;1738896;81;20850;-55
2022/02/04 23:10:34;;;;;;;18.67;9.35;;;;;;;2.13;51.49;99617.57;1745099;79;21837;-57
2022/02/04 23:13:08;;;;;;;15.03;8.33;;;;;;;2.21;50.99;99621.39;1738701;81;22646;-55
2022/02/04 23:15:36;;;;;;;16.15;9.80;;;;;;;2.25;51.63;99619.19;1742520;81;21601;-55
2022/02/04 23:18:10;;;;;;;13.28;8.78;;;;;;;2.22;50.87;99616.61;1746199;81;22468;-55
2022/02/04 23:20:28;;;;;;;26.00;14.33;;;;;;;2.23;51.01;99614.90;1748368;79;21058;-55
2022/02/04 23:23:06;;;;;;;36.77;18.42;;;;;;;2.26;50.83;99611.84;1743538;81;21561;-55
2022/02/04 23:28:03;;;;;;;20.88;11.33;;;;;;;2.35;50.91;99616.06;1687075;84;21535;-55
2022/02/04 23:51:23;;;;;;;23.40;13.83;;;;;;;2.65;51.59;99608.39;1683936;84;21428;-55
2022/02/04 23:53:51;;;;;;;22.30;13.32;;;;;;;2.81;51.83;99601.75;1701899;82;21429;-56
2022/02/04 23:56:17;;;;;;;23.60;12.13;;;;;;;2.93;51.94;99600.28;1676528;84;22850;-56
2022/02/04 23:58:57;;;;;;;18.63;10.63;;;;;;;2.99;51.98;99602.80;1678338;83;21518;-56
